sensor_id;sensor_type;location;lat;lon;timestamp;P1;durP1;ratioP1;P2;durP2;ratioP2
76357;SDS011;65185;21.060;105.826;2024-02-28T00:02:01;61.20;;;32.17;;
76357;SDS011;65185;21.060;105.826;2024-02-28T00:04:28;63.88;;;33.00;;
76357;SDS011;65185;21.060;105.826;2024-02-28T00:06:55;60.80;;;31.50;;
76357;SDS011;65185;21.060;105.826;2024-02-28T00:09:22;60.47;;;30.50;;
76357;SDS011;65185;21.060;105.826;2024-02-28T00:11:48;56.90;;;30.08;;
76357;SDS011;65185;21.060;105.826;2024-02-28T00:14:15;59.17;;;29.00;;
76357;SDS011;65185;21.060;105.826;2024-02-28T00:16:45;57.03;;;29.42;;
76357;SDS011;65185;21.060;105.826;2024-02-28T00:19:13;58.05;;;29.88;;
76357;SDS011;65185;21.060;105.826;2024-02-28T00:21:40;55.50;;;30.65;;
76357;SDS011;65185;21.060;105.826;2024-02-28T00:24:07;59.85;;;29.98;;
76357;SDS011;65185;21.060;105.826;2024-02-28T00:26:34;57.55;;;29.70;;
76357;SDS011;65185;21.060;105.826;2024-02-28T00:29:01;55.78;;;28.63;;
76357;SDS011;65185;21.060;105.826;2024-02-28T00:31:28;61.15;;;29.70;;
76357;SDS011;65185;21.060;105.826;2024-02-28T00:33:55;63.53;;;31.52;;
76357;SDS011;65185;21.060;105.826;2024-02-28T00:36:21;61.03;;;30.50;;
76357;SDS011;65185;21.060;105.826;2024-02-28T00:38:48;55.22;;;28.33;;
76357;SDS011;65185;21.060;105.826;2024-02-28T00:41:15;53.13;;;29.10;;
76357;SDS011;65185;21.060;105.826;2024-02-28T00:43:41;53.28;;;27.75;;
76357;SDS011;65185;21.060;105.826;2024-02-28T00:46:08;52.47;;;27.35;;
76357;SDS011;65185;21.060;105.826;2024-02-28T00:48:39;49.50;;;26.27;;
76357;SDS011;65185;21.060;105.826;2024-02-28T00:51:06;53.63;;;27.77;;
76357;SDS011;65185;21.060;105.826;2024-02-28T00:53:36;49.20;;;26.10;;
76357;SDS011;65185;21.060;105.826;2024-02-28T00:56:04;52.83;;;27.42;;
76357;SDS011;65185;21.060;105.826;2024-02-28T00:58:31;51.47;;;26.48;;
76357;SDS011;65185;21.060;105.826;2024-02-28T01:00:58;54.80;;;26.40;;
76357;SDS011;65185;21.060;105.826;2024-02-28T01:03:24;51.30;;;26.05;;
76357;SDS011;65185;21.060;105.826;2024-02-28T01:05:51;58.90;;;27.35;;
76357;SDS011;65185;21.060;105.826;2024-02-28T01:08:18;53.45;;;28.45;;
76357;SDS011;65185;21.060;105.826;2024-02-28T01:10:45;55.80;;;27.63;;
76357;SDS011;65185;21.060;105.826;2024-02-28T01:13:12;50.47;;;27.05;;
76357;SDS011;65185;21.060;105.826;2024-02-28T01:15:40;46.70;;;22.50;;
76357;SDS011;65185;21.060;105.826;2024-02-28T01:18:09;43.72;;;23.67;;
76357;SDS011;65185;21.060;105.826;2024-02-28T01:20:36;47.17;;;24.02;;
76357;SDS011;65185;21.060;105.826;2024-02-28T01:23:03;47.15;;;24.50;;
76357;SDS011;65185;21.060;105.826;2024-02-28T01:25:30;43.63;;;23.98;;
76357;SDS011;65185;21.060;105.826;2024-02-28T01:27:56;51.15;;;25.98;;
76357;SDS011;65185;21.060;105.826;2024-02-28T01:30:23;52.85;;;25.98;;
76357;SDS011;65185;21.060;105.826;2024-02-28T01:32:50;59.00;;;28.77;;
76357;SDS011;65185;21.060;105.826;2024-02-28T01:35:17;54.95;;;26.45;;
76357;SDS011;65185;21.060;105.826;2024-02-28T01:37:44;57.95;;;27.50;;
76357;SDS011;65185;21.060;105.826;2024-02-28T01:40:11;58.42;;;27.63;;
76357;SDS011;65185;21.060;105.826;2024-02-28T01:42:38;54.88;;;26.58;;
76357;SDS011;65185;21.060;105.826;2024-02-28T01:45:04;56.03;;;28.95;;
76357;SDS011;65185;21.060;105.826;2024-02-28T01:47:34;61.60;;;29.50;;
76357;SDS011;65185;21.060;105.826;2024-02-28T01:50:01;65.95;;;33.97;;
76357;SDS011;65185;21.060;105.826;2024-02-28T01:52:28;68.95;;;34.40;;
76357;SDS011;65185;21.060;105.826;2024-02-28T01:54:55;63.75;;;33.00;;
76357;SDS011;65185;21.060;105.826;2024-02-28T01:57:22;64.82;;;33.00;;
76357;SDS011;65185;21.060;105.826;2024-02-28T01:59:49;64.18;;;34.30;;
76357;SDS011;65185;21.060;105.826;2024-02-28T02:02:16;68.20;;;34.47;;
76357;SDS011;65185;21.060;105.826;2024-02-28T02:04:43;78.20;;;39.38;;
76357;SDS011;65185;21.060;105.826;2024-02-28T02:07:10;79.45;;;40.47;;
76357;SDS011;65185;21.060;105.826;2024-02-28T02:09:37;79.10;;;40.15;;
76357;SDS011;65185;21.060;105.826;2024-02-28T02:12:05;77.13;;;38.35;;
76357;SDS011;65185;21.060;105.826;2024-02-28T02:14:32;76.72;;;39.08;;
76357;SDS011;65185;21.060;105.826;2024-02-28T02:16:59;74.57;;;38.83;;
76357;SDS011;65185;21.060;105.826;2024-02-28T02:19:25;74.60;;;38.40;;
76357;SDS011;65185;21.060;105.826;2024-02-28T02:21:52;78.65;;;40.20;;
76357;SDS011;65185;21.060;105.826;2024-02-28T02:24:22;76.50;;;41.28;;
76357;SDS011;65185;21.060;105.826;2024-02-28T02:26:49;79.97;;;41.30;;
76357;SDS011;65185;21.060;105.826;2024-02-28T02:29:20;78.78;;;40.03;;
76357;SDS011;65185;21.060;105.826;2024-02-28T02:31:47;77.85;;;40.55;;
76357;SDS011;65185;21.060;105.826;2024-02-28T02:34:13;80.43;;;42.75;;
76357;SDS011;65185;21.060;105.826;2024-02-28T02:36:40;97.72;;;47.17;;
76357;SDS011;65185;21.060;105.826;2024-02-28T02:39:07;91.93;;;45.45;;
76357;SDS011;65185;21.060;105.826;2024-02-28T02:41:34;91.03;;;47.28;;
76357;SDS011;65185;21.060;105.826;2024-02-28T02:44:00;95.75;;;50.67;;
76357;SDS011;65185;21.060;105.826;2024-02-28T02:46:27;100.35;;;49.90;;
76357;SDS011;65185;21.060;105.826;2024-02-28T02:48:54;107.00;;;52.22;;
76357;SDS011;65185;21.060;105.826;2024-02-28T02:51:21;105.00;;;52.50;;
76357;SDS011;65185;21.060;105.826;2024-02-28T02:53:48;103.80;;;50.70;;
76357;SDS011;65185;21.060;105.826;2024-02-28T02:56:15;109.03;;;53.40;;
76357;SDS011;65185;21.060;105.826;2024-02-28T02:58:43;92.30;;;49.75;;
76357;SDS011;65185;21.060;105.826;2024-02-28T03:01:09;87.35;;;45.90;;
76357;SDS011;65185;21.060;105.826;2024-02-28T03:03:36;85.53;;;46.60;;
76357;SDS011;65185;21.060;105.826;2024-02-28T03:06:03;79.78;;;45.08;;
76357;SDS011;65185;21.060;105.826;2024-02-28T03:08:30;82.38;;;44.80;;
76357;SDS011;65185;21.060;105.826;2024-02-28T03:10:57;87.65;;;45.63;;
76357;SDS011;65185;21.060;105.826;2024-02-28T03:13:24;110.85;;;54.63;;
76357;SDS011;65185;21.060;105.826;2024-02-28T03:15:51;108.90;;;53.35;;
76357;SDS011;65185;21.060;105.826;2024-02-28T03:18:18;100.00;;;52.70;;
76357;SDS011;65185;21.060;105.826;2024-02-28T03:20:44;98.20;;;49.40;;
76357;SDS011;65185;21.060;105.826;2024-02-28T03:23:11;89.85;;;45.60;;
76357;SDS011;65185;21.060;105.826;2024-02-28T03:25:38;89.32;;;45.13;;
76357;SDS011;65185;21.060;105.826;2024-02-28T03:28:05;84.63;;;42.45;;
76357;SDS011;65185;21.060;105.826;2024-02-28T03:30:31;81.25;;;40.58;;
76357;SDS011;65185;21.060;105.826;2024-02-28T03:32:58;92.90;;;46.25;;
76357;SDS011;65185;21.060;105.826;2024-02-28T03:35:25;99.10;;;47.10;;
76357;SDS011;65185;21.060;105.826;2024-02-28T03:37:52;86.30;;;42.88;;
76357;SDS011;65185;21.060;105.826;2024-02-28T03:40:19;97.45;;;48.97;;
76357;SDS011;65185;21.060;105.826;2024-02-28T03:42:45;100.65;;;51.80;;
76357;SDS011;65185;21.060;105.826;2024-02-28T03:45:12;92.22;;;46.30;;
76357;SDS011;65185;21.060;105.826;2024-02-28T03:47:45;89.28;;;45.97;;
76357;SDS011;65185;21.060;105.826;2024-02-28T03:50:14;89.15;;;46.65;;
76357;SDS011;65185;21.060;105.826;2024-02-28T03:52:41;82.88;;;42.55;;
76357;SDS011;65185;21.060;105.826;2024-02-28T03:55:08;88.68;;;43.85;;
76357;SDS011;65185;21.060;105.826;2024-02-28T03:57:35;81.75;;;42.15;;
76357;SDS011;65185;21.060;105.826;2024-02-28T04:00:02;76.43;;;40.58;;
76357;SDS011;65185;21.060;105.826;2024-02-28T04:02:30;70.57;;;35.65;;
76357;SDS011;65185;21.060;105.826;2024-02-28T04:04:57;63.60;;;33.47;;
76357;SDS011;65185;21.060;105.826;2024-02-28T04:07:23;69.90;;;34.42;;
76357;SDS011;65185;21.060;105.826;2024-02-28T04:09:53;66.43;;;33.13;;
76357;SDS011;65185;21.060;105.826;2024-02-28T04:12:20;57.47;;;30.20;;
76357;SDS011;65185;21.060;105.826;2024-02-28T04:14:46;52.28;;;29.15;;
76357;SDS011;65185;21.060;105.826;2024-02-28T04:17:13;46.33;;;26.40;;
76357;SDS011;65185;21.060;105.826;2024-02-28T04:19:40;54.25;;;28.10;;
76357;SDS011;65185;21.060;105.826;2024-02-28T04:22:06;45.65;;;26.27;;
76357;SDS011;65185;21.060;105.826;2024-02-28T04:24:33;50.30;;;27.73;;
76357;SDS011;65185;21.060;105.826;2024-02-28T04:27:00;49.15;;;27.65;;
76357;SDS011;65185;21.060;105.826;2024-02-28T04:29:30;50.17;;;27.55;;
76357;SDS011;65185;21.060;105.826;2024-02-28T04:31:57;46.85;;;28.00;;
76357;SDS011;65185;21.060;105.826;2024-02-28T04:34:24;51.17;;;29.70;;
76357;SDS011;65185;21.060;105.826;2024-02-28T04:36:50;62.42;;;35.95;;
76357;SDS011;65185;21.060;105.826;2024-02-28T04:39:17;58.80;;;35.15;;
76357;SDS011;65185;21.060;105.826;2024-02-28T04:41:44;67.60;;;38.08;;
76357;SDS011;65185;21.060;105.826;2024-02-28T04:44:11;60.92;;;36.03;;
76357;SDS011;65185;21.060;105.826;2024-02-28T04:46:38;65.28;;;37.40;;
76357;SDS011;65185;21.060;105.826;2024-02-28T04:49:05;64.75;;;36.83;;
76357;SDS011;65185;21.060;105.826;2024-02-28T04:51:31;59.95;;;35.42;;
76357;SDS011;65185;21.060;105.826;2024-02-28T04:53:58;73.75;;;38.83;;
76357;SDS011;65185;21.060;105.826;2024-02-28T04:56:25;71.32;;;39.63;;
76357;SDS011;65185;21.060;105.826;2024-02-28T04:58:52;74.40;;;41.67;;
76357;SDS011;65185;21.060;105.826;2024-02-28T05:01:18;79.53;;;44.17;;
76357;SDS011;65185;21.060;105.826;2024-02-28T05:03:53;76.18;;;43.00;;
76357;SDS011;65185;21.060;105.826;2024-02-28T05:06:20;72.72;;;39.90;;
76357;SDS011;65185;21.060;105.826;2024-02-28T05:08:47;74.13;;;40.72;;
76357;SDS011;65185;21.060;105.826;2024-02-28T05:11:13;73.38;;;40.45;;
76357;SDS011;65185;21.060;105.826;2024-02-28T05:13:40;78.30;;;42.63;;
76357;SDS011;65185;21.060;105.826;2024-02-28T05:16:13;92.60;;;48.78;;
76357;SDS011;65185;21.060;105.826;2024-02-28T05:18:40;95.60;;;48.80;;
76357;SDS011;65185;21.060;105.826;2024-02-28T05:21:07;89.80;;;47.10;;
76357;SDS011;65185;21.060;105.826;2024-02-28T05:23:40;90.70;;;45.45;;
76357;SDS011;65185;21.060;105.826;2024-02-28T05:26:07;79.53;;;42.67;;
76357;SDS011;65185;21.060;105.826;2024-02-28T05:28:33;78.55;;;42.20;;
76357;SDS011;65185;21.060;105.826;2024-02-28T05:33:53;81.53;;;44.00;;
76357;SDS011;65185;21.060;105.826;2024-02-28T05:36:22;82.82;;;45.58;;
76357;SDS011;65185;21.060;105.826;2024-02-28T05:38:50;88.07;;;46.95;;
76357;SDS011;65185;21.060;105.826;2024-02-28T05:41:17;87.40;;;47.45;;
76357;SDS011;65185;21.060;105.826;2024-02-28T05:43:44;89.55;;;48.40;;
76357;SDS011;65185;21.060;105.826;2024-02-28T05:46:14;85.72;;;47.05;;
76357;SDS011;65185;21.060;105.826;2024-02-28T05:48:44;84.15;;;44.45;;
76357;SDS011;65185;21.060;105.826;2024-02-28T05:51:11;86.15;;;45.05;;
76357;SDS011;65185;21.060;105.826;2024-02-28T05:53:41;79.32;;;43.38;;
76357;SDS011;65185;21.060;105.826;2024-02-28T05:56:09;78.40;;;43.53;;
76357;SDS011;65185;21.060;105.826;2024-02-28T05:58:39;80.65;;;42.30;;
76357;SDS011;65185;21.060;105.826;2024-02-28T06:01:10;79.47;;;44.05;;
76357;SDS011;65185;21.060;105.826;2024-02-28T06:03:37;83.28;;;44.90;;
76357;SDS011;65185;21.060;105.826;2024-02-28T06:06:04;99.35;;;50.35;;
76357;SDS011;65185;21.060;105.826;2024-02-28T06:08:32;101.05;;;53.97;;
76357;SDS011;65185;21.060;105.826;2024-02-28T06:10:59;100.85;;;52.53;;
76357;SDS011;65185;21.060;105.826;2024-02-28T06:13:27;87.47;;;49.15;;
76357;SDS011;65185;21.060;105.826;2024-02-28T06:15:57;71.68;;;42.30;;
76357;SDS011;65185;21.060;105.826;2024-02-28T06:18:27;59.55;;;36.38;;
76357;SDS011;65185;21.060;105.826;2024-02-28T06:20:54;55.72;;;32.80;;
76357;SDS011;65185;21.060;105.826;2024-02-28T06:23:22;52.53;;;30.45;;
76357;SDS011;65185;21.060;105.826;2024-02-28T06:25:49;54.85;;;32.60;;
76357;SDS011;65185;21.060;105.826;2024-02-28T06:28:16;52.70;;;30.45;;
76357;SDS011;65185;21.060;105.826;2024-02-28T06:30:43;56.83;;;32.97;;
76357;SDS011;65185;21.060;105.826;2024-02-28T06:33:13;54.13;;;31.42;;
76357;SDS011;65185;21.060;105.826;2024-02-28T06:35:40;53.67;;;31.95;;
76357;SDS011;65185;21.060;105.826;2024-02-28T06:38:07;59.67;;;33.92;;
76357;SDS011;65185;21.060;105.826;2024-02-28T06:40:34;60.55;;;35.40;;
76357;SDS011;65185;21.060;105.826;2024-02-28T06:43:01;73.25;;;40.90;;
76357;SDS011;65185;21.060;105.826;2024-02-28T06:45:27;76.72;;;42.67;;
76357;SDS011;65185;21.060;105.826;2024-02-28T06:47:54;74.07;;;42.65;;
76357;SDS011;65185;21.060;105.826;2024-02-28T06:50:21;70.57;;;40.22;;
76357;SDS011;65185;21.060;105.826;2024-02-28T06:52:47;77.40;;;44.15;;
76357;SDS011;65185;21.060;105.826;2024-02-28T06:55:14;78.60;;;43.85;;
76357;SDS011;65185;21.060;105.826;2024-02-28T06:57:41;77.07;;;42.25;;
76357;SDS011;65185;21.060;105.826;2024-02-28T07:00:09;76.30;;;41.92;;
76357;SDS011;65185;21.060;105.826;2024-02-28T07:02:38;76.10;;;43.05;;
76357;SDS011;65185;21.060;105.826;2024-02-28T07:05:10;85.60;;;46.40;;
76357;SDS011;65185;21.060;105.826;2024-02-28T07:07:37;89.32;;;48.20;;
76357;SDS011;65185;21.060;105.826;2024-02-28T07:10:04;85.43;;;49.42;;
76357;SDS011;65185;21.060;105.826;2024-02-28T07:12:31;84.22;;;48.13;;
76357;SDS011;65185;21.060;105.826;2024-02-28T07:15:01;78.90;;;46.90;;
76357;SDS011;65185;21.060;105.826;2024-02-28T07:17:28;79.15;;;45.38;;
76357;SDS011;65185;21.060;105.826;2024-02-28T07:19:57;80.40;;;46.45;;
76357;SDS011;65185;21.060;105.826;2024-02-28T07:22:25;81.13;;;46.85;;
76357;SDS011;65185;21.060;105.826;2024-02-28T07:24:51;84.35;;;48.22;;
76357;SDS011;65185;21.060;105.826;2024-02-28T07:27:18;85.32;;;47.65;;
76357;SDS011;65185;21.060;105.826;2024-02-28T07:29:47;75.95;;;44.33;;
76357;SDS011;65185;21.060;105.826;2024-02-28T07:32:14;69.60;;;40.88;;
76357;SDS011;65185;21.060;105.826;2024-02-28T07:34:40;69.05;;;40.15;;
76357;SDS011;65185;21.060;105.826;2024-02-28T07:37:07;67.70;;;40.28;;
76357;SDS011;65185;21.060;105.826;2024-02-28T07:39:34;66.30;;;39.28;;
76357;SDS011;65185;21.060;105.826;2024-02-28T07:42:01;66.03;;;38.67;;
76357;SDS011;65185;21.060;105.826;2024-02-28T07:44:28;59.67;;;36.00;;
76357;SDS011;65185;21.060;105.826;2024-02-28T07:46:57;64.93;;;37.35;;
76357;SDS011;65185;21.060;105.826;2024-02-28T07:49:24;61.10;;;35.08;;
76357;SDS011;65185;21.060;105.826;2024-02-28T07:51:51;65.05;;;37.00;;
76357;SDS011;65185;21.060;105.826;2024-02-28T07:54:18;65.28;;;37.40;;
76357;SDS011;65185;21.060;105.826;2024-02-28T07:56:45;62.90;;;36.65;;
76357;SDS011;65185;21.060;105.826;2024-02-28T07:59:11;67.22;;;38.95;;
76357;SDS011;65185;21.060;105.826;2024-02-28T08:01:38;68.50;;;40.60;;
76357;SDS011;65185;21.060;105.826;2024-02-28T08:04:05;72.07;;;42.80;;
76357;SDS011;65185;21.060;105.826;2024-02-28T08:06:32;80.32;;;45.55;;
76357;SDS011;65185;21.060;105.826;2024-02-28T08:08:59;79.85;;;45.35;;
76357;SDS011;65185;21.060;105.826;2024-02-28T08:11:26;79.07;;;45.50;;
76357;SDS011;65185;21.060;105.826;2024-02-28T08:13:53;83.07;;;47.28;;
76357;SDS011;65185;21.060;105.826;2024-02-28T08:16:20;85.28;;;50.38;;
76357;SDS011;65185;21.060;105.826;2024-02-28T08:18:46;94.00;;;52.53;;
76357;SDS011;65185;21.060;105.826;2024-02-28T08:21:13;93.93;;;54.70;;
76357;SDS011;65185;21.060;105.826;2024-02-28T08:23:40;91.40;;;49.92;;
76357;SDS011;65185;21.060;105.826;2024-02-28T08:26:06;84.97;;;48.50;;
76357;SDS011;65185;21.060;105.826;2024-02-28T08:28:33;94.20;;;51.63;;
76357;SDS011;65185;21.060;105.826;2024-02-28T08:31:00;87.82;;;50.03;;
76357;SDS011;65185;21.060;105.826;2024-02-28T08:33:27;87.40;;;46.55;;
76357;SDS011;65185;21.060;105.826;2024-02-28T08:35:53;85.07;;;45.97;;
76357;SDS011;65185;21.060;105.826;2024-02-28T08:38:20;86.35;;;46.28;;
76357;SDS011;65185;21.060;105.826;2024-02-28T08:40:47;89.82;;;50.33;;
76357;SDS011;65185;21.060;105.826;2024-02-28T08:43:14;94.20;;;52.88;;
76357;SDS011;65185;21.060;105.826;2024-02-28T08:45:40;100.43;;;53.50;;
76357;SDS011;65185;21.060;105.826;2024-02-28T08:48:07;111.28;;;57.38;;
76357;SDS011;65185;21.060;105.826;2024-02-28T08:50:34;100.60;;;54.55;;
76357;SDS011;65185;21.060;105.826;2024-02-28T08:53:02;105.97;;;56.60;;
76357;SDS011;65185;21.060;105.826;2024-02-28T08:55:28;106.85;;;56.85;;
76357;SDS011;65185;21.060;105.826;2024-02-28T08:57:56;109.90;;;56.65;;
76357;SDS011;65185;21.060;105.826;2024-02-28T09:00:23;99.25;;;53.55;;
76357;SDS011;65185;21.060;105.826;2024-02-28T09:02:49;88.95;;;48.38;;
76357;SDS011;65185;21.060;105.826;2024-02-28T09:05:16;88.47;;;46.85;;
76357;SDS011;65185;21.060;105.826;2024-02-28T09:07:44;90.43;;;48.88;;
76357;SDS011;65185;21.060;105.826;2024-02-28T09:10:16;86.03;;;46.88;;
76357;SDS011;65185;21.060;105.826;2024-02-28T09:12:49;82.13;;;44.13;;
76357;SDS011;65185;21.060;105.826;2024-02-28T09:15:16;84.85;;;47.78;;
76357;SDS011;65185;21.060;105.826;2024-02-28T09:17:43;76.85;;;44.78;;
76357;SDS011;65185;21.060;105.826;2024-02-28T09:20:12;74.65;;;41.85;;
76357;SDS011;65185;21.060;105.826;2024-02-28T09:22:39;96.18;;;53.90;;
76357;SDS011;65185;21.060;105.826;2024-02-28T09:25:05;90.68;;;50.28;;
76357;SDS011;65185;21.060;105.826;2024-02-28T09:27:34;98.10;;;52.17;;
76357;SDS011;65185;21.060;105.826;2024-02-28T09:30:02;93.70;;;51.10;;
76357;SDS011;65185;21.060;105.826;2024-02-28T09:32:29;83.63;;;45.53;;
76357;SDS011;65185;21.060;105.826;2024-02-28T09:34:56;76.00;;;42.83;;
76357;SDS011;65185;21.060;105.826;2024-02-28T09:37:22;78.60;;;40.22;;
76357;SDS011;65185;21.060;105.826;2024-02-28T09:39:50;69.75;;;39.53;;
76357;SDS011;65185;21.060;105.826;2024-02-28T09:42:18;69.13;;;40.00;;
76357;SDS011;65185;21.060;105.826;2024-02-28T09:44:45;85.72;;;45.65;;
76357;SDS011;65185;21.060;105.826;2024-02-28T09:47:12;80.95;;;45.55;;
76357;SDS011;65185;21.060;105.826;2024-02-28T09:49:40;76.53;;;43.15;;
76357;SDS011;65185;21.060;105.826;2024-02-28T09:52:08;91.35;;;48.92;;
76357;SDS011;65185;21.060;105.826;2024-02-28T09:54:35;87.35;;;46.55;;
76357;SDS011;65185;21.060;105.826;2024-02-28T09:57:02;74.43;;;43.75;;
76357;SDS011;65185;21.060;105.826;2024-02-28T09:59:31;82.38;;;46.55;;
76357;SDS011;65185;21.060;105.826;2024-02-28T10:01:59;80.57;;;46.72;;
76357;SDS011;65185;21.060;105.826;2024-02-28T10:04:27;74.43;;;42.70;;
76357;SDS011;65185;21.060;105.826;2024-02-28T10:06:53;84.93;;;49.40;;
76357;SDS011;65185;21.060;105.826;2024-02-28T10:09:20;80.22;;;45.97;;
76357;SDS011;65185;21.060;105.826;2024-02-28T10:11:47;69.20;;;42.17;;
76357;SDS011;65185;21.060;105.826;2024-02-28T10:14:17;78.20;;;43.78;;
76357;SDS011;65185;21.060;105.826;2024-02-28T10:16:45;77.90;;;44.92;;
76357;SDS011;65185;21.060;105.826;2024-02-28T10:19:12;74.10;;;41.97;;
76357;SDS011;65185;21.060;105.826;2024-02-28T10:21:38;72.65;;;43.72;;
76357;SDS011;65185;21.060;105.826;2024-02-28T10:24:05;78.70;;;46.25;;
76357;SDS011;65185;21.060;105.826;2024-02-28T10:26:32;77.30;;;43.38;;
76357;SDS011;65185;21.060;105.826;2024-02-28T10:29:07;65.80;;;39.75;;
76357;SDS011;65185;21.060;105.826;2024-02-28T10:31:33;68.20;;;40.10;;
76357;SDS011;65185;21.060;105.826;2024-02-28T10:34:01;82.05;;;46.03;;
76357;SDS011;65185;21.060;105.826;2024-02-28T10:36:30;76.55;;;42.20;;
76357;SDS011;65185;21.060;105.826;2024-02-28T10:38:59;78.28;;;42.75;;
76357;SDS011;65185;21.060;105.826;2024-02-28T10:41:26;86.10;;;47.60;;
76357;SDS011;65185;21.060;105.826;2024-02-28T10:43:54;86.38;;;47.58;;
76357;SDS011;65185;21.060;105.826;2024-02-28T10:46:21;79.78;;;45.80;;
76357;SDS011;65185;21.060;105.826;2024-02-28T10:48:49;73.18;;;42.10;;
76357;SDS011;65185;21.060;105.826;2024-02-28T10:51:20;74.35;;;42.08;;
76357;SDS011;65185;21.060;105.826;2024-02-28T10:54:01;75.53;;;41.13;;
76357;SDS011;65185;21.060;105.826;2024-02-28T10:56:41;68.30;;;39.03;;
76357;SDS011;65185;21.060;105.826;2024-02-28T10:59:09;66.82;;;36.17;;
76357;SDS011;65185;21.060;105.826;2024-02-28T11:01:39;64.90;;;36.13;;
76357;SDS011;65185;21.060;105.826;2024-02-28T11:04:09;70.90;;;35.45;;
76357;SDS011;65185;21.060;105.826;2024-02-28T11:07:00;58.70;;;33.35;;
76357;SDS011;65185;21.060;105.826;2024-02-28T11:09:24;54.45;;;30.77;;
76357;SDS011;65185;21.060;105.826;2024-02-28T11:11:55;59.15;;;30.17;;
76357;SDS011;65185;21.060;105.826;2024-02-28T11:14:22;52.00;;;27.10;;
76357;SDS011;65185;21.060;105.826;2024-02-28T11:17:01;43.47;;;24.52;;
76357;SDS011;65185;21.060;105.826;2024-02-28T11:19:30;41.42;;;25.02;;
76357;SDS011;65185;21.060;105.826;2024-02-28T11:22:01;54.80;;;26.63;;
76357;SDS011;65185;21.060;105.826;2024-02-28T11:24:34;45.47;;;23.00;;
76357;SDS011;65185;21.060;105.826;2024-02-28T11:27:05;40.92;;;23.23;;
76357;SDS011;65185;21.060;105.826;2024-02-28T11:29:32;45.33;;;24.88;;
76357;SDS011;65185;21.060;105.826;2024-02-28T11:31:58;47.25;;;24.13;;
76357;SDS011;65185;21.060;105.826;2024-02-28T11:34:25;42.70;;;23.02;;
76357;SDS011;65185;21.060;105.826;2024-02-28T11:36:52;40.42;;;20.27;;
76357;SDS011;65185;21.060;105.826;2024-02-28T11:39:20;46.65;;;23.55;;
76357;SDS011;65185;21.060;105.826;2024-02-28T11:41:50;40.33;;;21.63;;
76357;SDS011;65185;21.060;105.826;2024-02-28T11:44:17;46.05;;;21.58;;
76357;SDS011;65185;21.060;105.826;2024-02-28T11:46:44;40.47;;;19.92;;
76357;SDS011;65185;21.060;105.826;2024-02-28T11:49:15;37.63;;;21.10;;
76357;SDS011;65185;21.060;105.826;2024-02-28T11:51:45;38.50;;;19.90;;
76357;SDS011;65185;21.060;105.826;2024-02-28T11:54:17;38.03;;;20.30;;
76357;SDS011;65185;21.060;105.826;2024-02-28T11:56:46;42.80;;;21.13;;
76357;SDS011;65185;21.060;105.826;2024-02-28T11:59:13;43.88;;;21.65;;
76357;SDS011;65185;21.060;105.826;2024-02-28T12:01:41;36.08;;;19.55;;
76357;SDS011;65185;21.060;105.826;2024-02-28T12:04:12;41.67;;;21.55;;
76357;SDS011;65185;21.060;105.826;2024-02-28T12:06:39;48.13;;;23.60;;
76357;SDS011;65185;21.060;105.826;2024-02-28T12:09:07;45.38;;;22.92;;
76357;SDS011;65185;21.060;105.826;2024-02-28T12:11:37;34.28;;;21.27;;
76357;SDS011;65185;21.060;105.826;2024-02-28T12:14:05;44.35;;;21.60;;
76357;SDS011;65185;21.060;105.826;2024-02-28T12:19:13;41.08;;;21.73;;
76357;SDS011;65185;21.060;105.826;2024-02-28T12:21:41;46.80;;;24.40;;
76357;SDS011;65185;21.060;105.826;2024-02-28T12:24:09;47.70;;;26.00;;
76357;SDS011;65185;21.060;105.826;2024-02-28T12:26:37;45.65;;;25.95;;
76357;SDS011;65185;21.060;105.826;2024-02-28T12:29:04;43.97;;;24.52;;
76357;SDS011;65185;21.060;105.826;2024-02-28T12:31:31;42.42;;;23.00;;
76357;SDS011;65185;21.060;105.826;2024-02-28T12:33:58;48.13;;;28.92;;
76357;SDS011;65185;21.060;105.826;2024-02-28T12:36:25;53.70;;;28.02;;
76357;SDS011;65185;21.060;105.826;2024-02-28T12:38:52;47.05;;;25.90;;
76357;SDS011;65185;21.060;105.826;2024-02-28T12:41:18;47.10;;;26.40;;
76357;SDS011;65185;21.060;105.826;2024-02-28T12:43:45;55.30;;;29.35;;
76357;SDS011;65185;21.060;105.826;2024-02-28T12:46:12;51.10;;;29.08;;
76357;SDS011;65185;21.060;105.826;2024-02-28T12:48:48;46.33;;;26.73;;
76357;SDS011;65185;21.060;105.826;2024-02-28T12:51:31;53.83;;;29.45;;
76357;SDS011;65185;21.060;105.826;2024-02-28T12:54:11;54.17;;;30.10;;
76357;SDS011;65185;21.060;105.826;2024-02-28T12:56:39;48.85;;;26.90;;
76357;SDS011;65185;21.060;105.826;2024-02-28T12:59:11;45.83;;;25.15;;
76357;SDS011;65185;21.060;105.826;2024-02-28T13:01:38;53.45;;;31.65;;
76357;SDS011;65185;21.060;105.826;2024-02-28T13:04:05;54.90;;;30.27;;
76357;SDS011;65185;21.060;105.826;2024-02-28T13:06:32;50.53;;;27.60;;
76357;SDS011;65185;21.060;105.826;2024-02-28T13:08:59;55.10;;;31.02;;
76357;SDS011;65185;21.060;105.826;2024-02-28T13:11:26;55.95;;;33.08;;
76357;SDS011;65185;21.060;105.826;2024-02-28T13:13:53;52.38;;;31.15;;
76357;SDS011;65185;21.060;105.826;2024-02-28T13:16:20;51.20;;;29.10;;
76357;SDS011;65185;21.060;105.826;2024-02-28T13:18:49;55.00;;;31.10;;
76357;SDS011;65185;21.060;105.826;2024-02-28T13:21:16;57.85;;;33.35;;
76357;SDS011;65185;21.060;105.826;2024-02-28T13:23:43;54.85;;;32.45;;
76357;SDS011;65185;21.060;105.826;2024-02-28T13:26:09;62.63;;;34.33;;
76357;SDS011;65185;21.060;105.826;2024-02-28T13:28:43;57.47;;;32.78;;
76357;SDS011;65185;21.060;105.826;2024-02-28T13:31:10;57.90;;;32.78;;
76357;SDS011;65185;21.060;105.826;2024-02-28T13:33:38;58.22;;;33.47;;
76357;SDS011;65185;21.060;105.826;2024-02-28T13:36:07;61.90;;;36.15;;
76357;SDS011;65185;21.060;105.826;2024-02-28T13:38:34;64.00;;;35.03;;
76357;SDS011;65185;21.060;105.826;2024-02-28T13:41:05;58.00;;;34.03;;
76357;SDS011;65185;21.060;105.826;2024-02-28T13:43:32;60.42;;;34.67;;
76357;SDS011;65185;21.060;105.826;2024-02-28T13:46:02;60.25;;;36.63;;
76357;SDS011;65185;21.060;105.826;2024-02-28T13:48:32;56.10;;;33.63;;
76357;SDS011;65185;21.060;105.826;2024-02-28T13:51:01;58.05;;;33.17;;
76357;SDS011;65185;21.060;105.826;2024-02-28T13:53:28;57.85;;;34.50;;
76357;SDS011;65185;21.060;105.826;2024-02-28T13:55:55;59.67;;;33.17;;
76357;SDS011;65185;21.060;105.826;2024-02-28T13:58:22;56.45;;;31.67;;
76357;SDS011;65185;21.060;105.826;2024-02-28T14:00:51;56.58;;;32.88;;
76357;SDS011;65185;21.060;105.826;2024-02-28T14:03:18;50.58;;;31.02;;
76357;SDS011;65185;21.060;105.826;2024-02-28T14:05:46;48.80;;;29.23;;